sensor_id;sensor_type;location;lat;lon;timestamp;P1;durP1;ratioP1;P2;durP2;ratioP2
55222;SDS011;41090;48.632;12.428;2023-07-13T00:01:57;10.07;;;8.30;;
55222;SDS011;41090;48.632;12.428;2023-07-13T00:04:23;9.60;;;8.40;;
55222;SDS011;41090;48.632;12.428;2023-07-13T00:06:50;10.83;;;9.13;;
55222;SDS011;41090;48.632;12.428;2023-07-13T00:09:15;10.50;;;8.57;;
55222;SDS011;41090;48.632;12.428;2023-07-13T00:11:43;9.90;;;8.90;;
55222;SDS011;41090;48.632;12.428;2023-07-13T00:14:08;11.00;;;8.43;;
55222;SDS011;41090;48.632;12.428;2023-07-13T00:16:34;10.40;;;8.67;;
55222;SDS011;41090;48.632;12.428;2023-07-13T00:19:00;9.00;;;8.10;;
55222;SDS011;41090;48.632;12.428;2023-07-13T00:21:26;9.53;;;8.07;;
55222;SDS011;41090;48.632;12.428;2023-07-13T00:23:51;12.03;;;8.17;;
55222;SDS011;41090;48.632;12.428;2023-07-13T00:26:16;8.33;;;7.43;;
55222;SDS011;41090;48.632;12.428;2023-07-13T00:28:42;9.33;;;7.57;;
55222;SDS011;41090;48.632;12.428;2023-07-13T00:31:08;8.27;;;7.40;;
55222;SDS011;41090;48.632;12.428;2023-07-13T00:33:33;8.40;;;7.13;;
55222;SDS011;41090;48.632;12.428;2023-07-13T00:35:59;9.27;;;6.90;;
55222;SDS011;41090;48.632;12.428;2023-07-13T00:38:24;8.73;;;7.50;;
55222;SDS011;41090;48.632;12.428;2023-07-13T01:20:12;7.00;;;6.00;;
55222;SDS011;41090;48.632;12.428;2023-07-13T01:22:40;7.87;;;7.07;;
55222;SDS011;41090;48.632;12.428;2023-07-13T01:43:24;11.83;;;7.23;;
55222;SDS011;41090;48.632;12.428;2023-07-13T02:04:07;14.70;;;9.00;;
55222;SDS011;41090;48.632;12.428;2023-07-13T02:27:52;9.50;;;6.30;;
55222;SDS011;41090;48.632;12.428;2023-07-13T02:30:17;13.47;;;6.90;;
55222;SDS011;41090;48.632;12.428;2023-07-13T02:32:43;7.63;;;6.20;;
55222;SDS011;41090;48.632;12.428;2023-07-13T02:53:26;6.53;;;5.47;;
55222;SDS011;41090;48.632;12.428;2023-07-13T03:35:31;8.60;;;5.10;;
55222;SDS011;41090;48.632;12.428;2023-07-13T03:56:15;7.63;;;5.20;;
55222;SDS011;41090;48.632;12.428;2023-07-13T05:36:33;6.43;;;5.63;;
55222;SDS011;41090;48.632;12.428;2023-07-13T06:21:33;6.65;;;4.50;;
55222;SDS011;41090;48.632;12.428;2023-07-13T06:23:58;7.60;;;4.60;;
55222;SDS011;41090;48.632;12.428;2023-07-13T06:26:24;5.95;;;4.38;;
55222;SDS011;41090;48.632;12.428;2023-07-13T06:28:49;6.97;;;4.33;;
55222;SDS011;41090;48.632;12.428;2023-07-13T06:31:14;7.20;;;4.13;;
55222;SDS011;41090;48.632;12.428;2023-07-13T06:33:40;9.43;;;4.43;;
55222;SDS011;41090;48.632;12.428;2023-07-13T06:36:06;6.55;;;3.97;;
55222;SDS011;41090;48.632;12.428;2023-07-13T06:38:32;6.05;;;3.80;;
55222;SDS011;41090;48.632;12.428;2023-07-13T06:40:57;7.47;;;3.67;;
55222;SDS011;41090;48.632;12.428;2023-07-13T06:43:23;6.45;;;3.88;;
55222;SDS011;41090;48.632;12.428;2023-07-13T06:45:50;9.18;;;3.92;;
55222;SDS011;41090;48.632;12.428;2023-07-13T06:48:16;6.65;;;3.42;;
55222;SDS011;41090;48.632;12.428;2023-07-13T06:50:42;9.32;;;4.10;;
55222;SDS011;41090;48.632;12.428;2023-07-13T06:53:07;7.72;;;3.67;;
55222;SDS011;41090;48.632;12.428;2023-07-13T06:55:33;6.20;;;3.85;;
55222;SDS011;41090;48.632;12.428;2023-07-13T07:00:28;6.82;;;3.30;;
55222;SDS011;41090;48.632;12.428;2023-07-13T07:02:53;6.32;;;3.40;;
55222;SDS011;41090;48.632;12.428;2023-07-13T07:05:19;6.15;;;3.00;;
55222;SDS011;41090;48.632;12.428;2023-07-13T07:07:46;5.90;;;3.33;;
55222;SDS011;41090;48.632;12.428;2023-07-13T07:10:13;5.20;;;3.00;;
55222;SDS011;41090;48.632;12.428;2023-07-13T07:12:38;3.58;;;2.95;;
55222;SDS011;41090;48.632;12.428;2023-07-13T07:15:03;6.55;;;3.33;;
55222;SDS011;41090;48.632;12.428;2023-07-13T07:17:29;5.78;;;2.97;;
55222;SDS011;41090;48.632;12.428;2023-07-13T07:19:54;5.25;;;2.88;;
55222;SDS011;41090;48.632;12.428;2023-07-13T07:22:20;5.97;;;2.60;;
55222;SDS011;41090;48.632;12.428;2023-07-13T07:24:45;4.15;;;2.33;;
55222;SDS011;41090;48.632;12.428;2023-07-13T07:27:10;3.70;;;2.60;;
55222;SDS011;41090;48.632;12.428;2023-07-13T07:29:35;6.55;;;2.85;;
55222;SDS011;41090;48.632;12.428;2023-07-13T07:32:01;3.40;;;2.30;;
55222;SDS011;41090;48.632;12.428;2023-07-13T07:34:26;4.85;;;2.40;;
55222;SDS011;41090;48.632;12.428;2023-07-13T07:36:51;5.23;;;2.30;;
55222;SDS011;41090;48.632;12.428;2023-07-13T07:39:17;5.25;;;2.35;;
55222;SDS011;41090;48.632;12.428;2023-07-13T07:41:42;3.25;;;2.03;;
55222;SDS011;41090;48.632;12.428;2023-07-13T07:44:07;3.93;;;2.23;;
55222;SDS011;41090;48.632;12.428;2023-07-13T07:46:34;3.95;;;2.50;;
55222;SDS011;41090;48.632;12.428;2023-07-13T07:49:00;5.22;;;2.45;;
55222;SDS011;41090;48.632;12.428;2023-07-13T07:51:25;5.53;;;2.23;;
55222;SDS011;41090;48.632;12.428;2023-07-13T07:53:51;7.25;;;2.20;;
55222;SDS011;41090;48.632;12.428;2023-07-13T07:56:16;4.53;;;2.50;;
55222;SDS011;41090;48.632;12.428;2023-07-13T07:58:42;3.45;;;2.20;;
55222;SDS011;41090;48.632;12.428;2023-07-13T08:01:07;4.97;;;1.85;;
55222;SDS011;41090;48.632;12.428;2023-07-13T08:03:32;3.55;;;2.38;;
55222;SDS011;41090;48.632;12.428;2023-07-13T08:05:57;3.50;;;2.25;;
55222;SDS011;41090;48.632;12.428;2023-07-13T08:08:23;4.32;;;2.10;;
55222;SDS011;41090;48.632;12.428;2023-07-13T08:10:48;5.32;;;2.17;;
55222;SDS011;41090;48.632;12.428;2023-07-13T08:13:14;4.87;;;2.00;;
55222;SDS011;41090;48.632;12.428;2023-07-13T08:15:39;3.67;;;1.80;;
55222;SDS011;41090;48.632;12.428;2023-07-13T08:18:05;4.55;;;2.03;;
55222;SDS011;41090;48.632;12.428;2023-07-13T08:20:30;5.00;;;2.10;;
55222;SDS011;41090;48.632;12.428;2023-07-13T08:22:55;4.73;;;1.90;;
55222;SDS011;41090;48.632;12.428;2023-07-13T08:25:21;4.13;;;1.70;;
55222;SDS011;41090;48.632;12.428;2023-07-13T08:27:47;3.00;;;1.83;;
55222;SDS011;41090;48.632;12.428;2023-07-13T08:30:12;7.40;;;1.93;;
55222;SDS011;41090;48.632;12.428;2023-07-13T08:32:38;4.38;;;2.20;;
55222;SDS011;41090;48.632;12.428;2023-07-13T08:35:04;4.72;;;2.08;;
55222;SDS011;41090;48.632;12.428;2023-07-13T08:37:29;4.70;;;1.85;;
55222;SDS011;41090;48.632;12.428;2023-07-13T08:39:54;2.90;;;1.70;;
55222;SDS011;41090;48.632;12.428;2023-07-13T08:45:04;3.20;;;1.85;;
55222;SDS011;41090;48.632;12.428;2023-07-13T08:47:32;4.72;;;2.00;;
55222;SDS011;41090;48.632;12.428;2023-07-13T08:49:58;2.80;;;1.90;;
55222;SDS011;41090;48.632;12.428;2023-07-13T08:52:37;4.13;;;1.90;;
55222;SDS011;41090;48.632;12.428;2023-07-13T08:55:12;3.25;;;1.95;;
55222;SDS011;41090;48.632;12.428;2023-07-13T08:57:38;3.30;;;1.92;;
55222;SDS011;41090;48.632;12.428;2023-07-13T09:00:05;2.53;;;1.58;;
55222;SDS011;41090;48.632;12.428;2023-07-13T09:02:39;5.03;;;1.92;;
55222;SDS011;41090;48.632;12.428;2023-07-13T09:13:12;2.70;;;2.10;;
55222;SDS011;41090;48.632;12.428;2023-07-13T09:15:43;2.47;;;1.80;;
55222;SDS011;41090;48.632;12.428;2023-07-13T09:20:35;3.33;;;2.20;;
55222;SDS011;41090;48.632;12.428;2023-07-13T09:23:03;4.68;;;2.10;;
55222;SDS011;41090;48.632;12.428;2023-07-13T09:25:31;5.30;;;2.30;;
55222;SDS011;41090;48.632;12.428;2023-07-13T09:27:58;4.45;;;2.30;;
55222;SDS011;41090;48.632;12.428;2023-07-13T09:30:30;4.20;;;2.08;;
55222;SDS011;41090;48.632;12.428;2023-07-13T09:32:57;3.35;;;1.95;;
55222;SDS011;41090;48.632;12.428;2023-07-13T09:35:25;2.38;;;1.80;;
55222;SDS011;41090;48.632;12.428;2023-07-13T09:37:56;5.63;;;1.90;;
55222;SDS011;41090;48.632;12.428;2023-07-13T09:40:24;3.67;;;2.00;;
55222;SDS011;41090;48.632;12.428;2023-07-13T09:42:51;4.72;;;2.20;;
55222;SDS011;41090;48.632;12.428;2023-07-13T09:45:26;4.15;;;2.50;;
55222;SDS011;41090;48.632;12.428;2023-07-13T09:47:53;6.75;;;2.30;;
55222;SDS011;41090;48.632;12.428;2023-07-13T09:50:23;4.82;;;2.50;;
55222;SDS011;41090;48.632;12.428;2023-07-13T09:52:49;10.60;;;2.78;;
55222;SDS011;41090;48.632;12.428;2023-07-13T09:57:52;4.40;;;2.40;;
55222;SDS011;41090;48.632;12.428;2023-07-13T10:00:25;7.50;;;2.50;;
55222;SDS011;41090;48.632;12.428;2023-07-13T10:05:25;5.45;;;2.17;;
55222;SDS011;41090;48.632;12.428;2023-07-13T10:07:50;3.35;;;2.30;;
55222;SDS011;41090;48.632;12.428;2023-07-13T10:10:17;6.85;;;2.20;;
55222;SDS011;41090;48.632;12.428;2023-07-13T10:12:43;5.05;;;2.70;;
55222;SDS011;41090;48.632;12.428;2023-07-13T10:15:17;3.47;;;2.38;;
55222;SDS011;41090;48.632;12.428;2023-07-13T10:17:42;5.90;;;2.40;;
55222;SDS011;41090;48.632;12.428;2023-07-13T10:20:09;3.75;;;2.30;;
55222;SDS011;41090;48.632;12.428;2023-07-13T10:25:07;2.95;;;2.03;;
55222;SDS011;41090;48.632;12.428;2023-07-13T10:27:37;4.60;;;2.55;;
55222;SDS011;41090;48.632;12.428;2023-07-13T10:32:37;4.07;;;2.22;;
55222;SDS011;41090;48.632;12.428;2023-07-13T10:35:02;2.65;;;2.10;;
55222;SDS011;41090;48.632;12.428;2023-07-13T10:37:29;3.83;;;2.00;;
55222;SDS011;41090;48.632;12.428;2023-07-13T10:39:57;6.88;;;2.28;;
55222;SDS011;41090;48.632;12.428;2023-07-13T10:42:28;4.10;;;2.38;;
55222;SDS011;41090;48.632;12.428;2023-07-13T10:44:54;3.55;;;2.08;;
55222;SDS011;41090;48.632;12.428;2023-07-13T10:47:20;2.90;;;1.85;;
55222;SDS011;41090;48.632;12.428;2023-07-13T10:49:53;3.35;;;1.80;;
55222;SDS011;41090;48.632;12.428;2023-07-13T10:55:02;5.68;;;2.33;;
55222;SDS011;41090;48.632;12.428;2023-07-13T10:57:28;4.75;;;2.10;;
55222;SDS011;41090;48.632;12.428;2023-07-13T11:00:15;2.97;;;2.15;;
55222;SDS011;41090;48.632;12.428;2023-07-13T11:02:39;3.38;;;2.05;;
55222;SDS011;41090;48.632;12.428;2023-07-13T11:05:26;3.72;;;1.95;;
55222;SDS011;41090;48.632;12.428;2023-07-13T11:10:46;4.47;;;2.30;;
55222;SDS011;41090;48.632;12.428;2023-07-13T11:13:35;3.30;;;2.10;;
55222;SDS011;41090;48.632;12.428;2023-07-13T11:15:57;3.38;;;2.05;;
55222;SDS011;41090;48.632;12.428;2023-07-13T11:18:23;3.75;;;2.08;;
55222;SDS011;41090;48.632;12.428;2023-07-13T11:20:51;3.30;;;2.05;;
55222;SDS011;41090;48.632;12.428;2023-07-13T11:35:34;3.08;;;1.70;;
55222;SDS011;41090;48.632;12.428;2023-07-13T11:38:01;5.20;;;2.30;;
55222;SDS011;41090;48.632;12.428;2023-07-13T11:40:27;3.67;;;1.98;;
55222;SDS011;41090;48.632;12.428;2023-07-13T11:42:58;4.80;;;1.98;;
55222;SDS011;41090;48.632;12.428;2023-07-13T11:45:23;4.28;;;1.92;;
55222;SDS011;41090;48.632;12.428;2023-07-13T11:47:49;1.92;;;1.73;;
55222;SDS011;41090;48.632;12.428;2023-07-13T11:50:21;2.55;;;2.10;;
55222;SDS011;41090;48.632;12.428;2023-07-13T11:52:48;2.45;;;1.77;;
55222;SDS011;41090;48.632;12.428;2023-07-13T11:55:15;4.82;;;1.88;;
55222;SDS011;41090;48.632;12.428;2023-07-13T11:57:43;3.17;;;1.88;;
55222;SDS011;41090;48.632;12.428;2023-07-13T12:00:11;3.78;;;1.83;;
55222;SDS011;41090;48.632;12.428;2023-07-13T12:02:38;2.72;;;1.70;;
55222;SDS011;41090;48.632;12.428;2023-07-13T12:05:04;8.48;;;1.77;;
55222;SDS011;41090;48.632;12.428;2023-07-13T12:07:31;2.30;;;1.80;;
55222;SDS011;41090;48.632;12.428;2023-07-13T12:10:01;2.50;;;1.60;;
55222;SDS011;41090;48.632;12.428;2023-07-13T12:12:28;3.50;;;1.83;;
55222;SDS011;41090;48.632;12.428;2023-07-13T12:14:54;2.85;;;1.90;;
55222;SDS011;41090;48.632;12.428;2023-07-13T12:17:21;5.03;;;1.95;;
55222;SDS011;41090;48.632;12.428;2023-07-13T12:19:47;3.67;;;1.77;;
55222;SDS011;41090;48.632;12.428;2023-07-13T12:22:13;4.13;;;1.85;;
55222;SDS011;41090;48.632;12.428;2023-07-13T12:24:40;3.45;;;1.80;;
55222;SDS011;41090;48.632;12.428;2023-07-13T12:27:05;2.63;;;1.85;;
55222;SDS011;41090;48.632;12.428;2023-07-13T12:29:31;3.38;;;1.80;;
55222;SDS011;41090;48.632;12.428;2023-07-13T12:31:57;4.78;;;1.85;;
55222;SDS011;41090;48.632;12.428;2023-07-13T12:34:23;2.28;;;1.80;;
55222;SDS011;41090;48.632;12.428;2023-07-13T12:36:58;2.33;;;1.73;;
55222;SDS011;41090;48.632;12.428;2023-07-13T12:39:34;2.78;;;1.58;;
55222;SDS011;41090;48.632;12.428;2023-07-13T12:42:19;4.28;;;1.90;;
55222;SDS011;41090;48.632;12.428;2023-07-13T12:44:46;2.97;;;1.80;;
55222;SDS011;41090;48.632;12.428;2023-07-13T12:47:12;2.95;;;1.75;;
55222;SDS011;41090;48.632;12.428;2023-07-13T12:49:42;3.47;;;1.92;;
55222;SDS011;41090;48.632;12.428;2023-07-13T12:52:16;4.47;;;1.80;;
55222;SDS011;41090;48.632;12.428;2023-07-13T12:54:41;2.45;;;2.00;;
55222;SDS011;41090;48.632;12.428;2023-07-13T12:57:08;3.35;;;1.75;;
55222;SDS011;41090;48.632;12.428;2023-07-13T12:59:37;2.50;;;1.90;;
55222;SDS011;41090;48.632;12.428;2023-07-13T13:02:07;4.70;;;1.80;;
55222;SDS011;41090;48.632;12.428;2023-07-13T13:04:42;3.05;;;1.60;;
55222;SDS011;41090;48.632;12.428;2023-07-13T13:07:08;2.10;;;1.58;;
55222;SDS011;41090;48.632;12.428;2023-07-13T13:09:34;2.88;;;1.88;;
55222;SDS011;41090;48.632;12.428;2023-07-13T13:11:59;5.53;;;1.83;;
55222;SDS011;41090;48.632;12.428;2023-07-13T13:14:25;5.05;;;1.88;;
55222;SDS011;41090;48.632;12.428;2023-07-13T13:16:50;3.85;;;1.90;;
55222;SDS011;41090;48.632;12.428;2023-07-13T13:19:17;3.40;;;1.70;;
55222;SDS011;41090;48.632;12.428;2023-07-13T13:21:43;2.50;;;1.70;;
55222;SDS011;41090;48.632;12.428;2023-07-13T13:24:13;2.88;;;1.77;;
55222;SDS011;41090;48.632;12.428;2023-07-13T13:26:38;2.10;;;1.73;;
55222;SDS011;41090;48.632;12.428;2023-07-13T13:29:18;5.75;;;1.70;;
55222;SDS011;41090;48.632;12.428;2023-07-13T13:31:44;4.32;;;1.70;;
55222;SDS011;41090;48.632;12.428;2023-07-13T13:34:10;1.83;;;1.60;;
55222;SDS011;41090;48.632;12.428;2023-07-13T13:36:35;2.35;;;1.73;;
55222;SDS011;41090;48.632;12.428;2023-07-13T13:39:01;2.00;;;1.60;;
55222;SDS011;41090;48.632;12.428;2023-07-13T13:41:27;2.90;;;1.75;;
55222;SDS011;41090;48.632;12.428;2023-07-13T13:43:52;2.13;;;1.80;;
55222;SDS011;41090;48.632;12.428;2023-07-13T13:46:18;2.85;;;1.80;;
55222;SDS011;41090;48.632;12.428;2023-07-13T13:48:44;2.85;;;1.67;;
55222;SDS011;41090;48.632;12.428;2023-07-13T13:51:18;1.92;;;1.73;;
55222;SDS011;41090;48.632;12.428;2023-07-13T13:53:44;2.97;;;1.90;;
55222;SDS011;41090;48.632;12.428;2023-07-13T13:56:10;4.43;;;1.70;;
55222;SDS011;41090;48.632;12.428;2023-07-13T13:58:35;3.72;;;1.70;;
55222;SDS011;41090;48.632;12.428;2023-07-13T14:01:01;1.95;;;1.70;;
55222;SDS011;41090;48.632;12.428;2023-07-13T14:03:26;1.98;;;1.75;;
55222;SDS011;41090;48.632;12.428;2023-07-13T14:05:53;2.13;;;1.60;;
55222;SDS011;41090;48.632;12.428;2023-07-13T14:08:20;4.70;;;1.77;;
55222;SDS011;41090;48.632;12.428;2023-07-13T14:10:53;4.40;;;1.95;;
55222;SDS011;41090;48.632;12.428;2023-07-13T14:13:20;2.95;;;1.83;;
55222;SDS011;41090;48.632;12.428;2023-07-13T14:15:46;2.50;;;1.70;;
55222;SDS011;41090;48.632;12.428;2023-07-13T14:18:12;3.22;;;1.92;;
55222;SDS011;41090;48.632;12.428;2023-07-13T14:20:42;3.38;;;1.95;;
55222;SDS011;41090;48.632;12.428;2023-07-13T14:23:08;2.63;;;1.90;;
55222;SDS011;41090;48.632;12.428;2023-07-13T14:25:33;2.05;;;1.80;;
55222;SDS011;41090;48.632;12.428;2023-07-13T14:27:58;2.13;;;1.77;;
55222;SDS011;41090;48.632;12.428;2023-07-13T14:30:25;2.33;;;1.73;;
55222;SDS011;41090;48.632;12.428;2023-07-13T14:32:51;2.78;;;1.67;;
55222;SDS011;41090;48.632;12.428;2023-07-13T14:35:17;2.67;;;2.00;;
55222;SDS011;41090;48.632;12.428;2023-07-13T14:37:43;2.78;;;1.80;;
55222;SDS011;41090;48.632;12.428;2023-07-13T14:42:37;3.15;;;1.70;;
55222;SDS011;41090;48.632;12.428;2023-07-13T14:45:02;1.92;;;1.70;;
55222;SDS011;41090;48.632;12.428;2023-07-13T14:47:28;3.08;;;2.05;;
55222;SDS011;41090;48.632;12.428;2023-07-13T14:49:53;2.47;;;1.90;;
55222;SDS011;41090;48.632;12.428;2023-07-13T14:52:19;2.65;;;1.60;;
55222;SDS011;41090;48.632;12.428;2023-07-13T14:54:45;2.53;;;1.70;;
55222;SDS011;41090;48.632;12.428;2023-07-13T14:57:11;2.38;;;1.40;;
55222;SDS011;41090;48.632;12.428;2023-07-13T14:59:36;1.98;;;1.77;;
55222;SDS011;41090;48.632;12.428;2023-07-13T15:02:02;3.53;;;2.00;;
55222;SDS011;41090;48.632;12.428;2023-07-13T15:04:27;2.45;;;1.75;;
55222;SDS011;41090;48.632;12.428;2023-07-13T15:06:58;3.78;;;2.10;;
55222;SDS011;41090;48.632;12.428;2023-07-13T15:09:24;3.83;;;1.88;;
55222;SDS011;41090;48.632;12.428;2023-07-13T15:11:51;2.78;;;1.70;;
55222;SDS011;41090;48.632;12.428;2023-07-13T15:14:16;2.47;;;1.85;;
55222;SDS011;41090;48.632;12.428;2023-07-13T15:16:42;3.78;;;2.00;;
55222;SDS011;41090;48.632;12.428;2023-07-13T15:19:08;2.45;;;1.65;;
55222;SDS011;41090;48.632;12.428;2023-07-13T15:21:34;7.88;;;2.00;;
55222;SDS011;41090;48.632;12.428;2023-07-13T15:24:00;3.03;;;1.65;;
55222;SDS011;41090;48.632;12.428;2023-07-13T15:26:25;4.78;;;1.80;;
55222;SDS011;41090;48.632;12.428;2023-07-13T15:28:50;2.88;;;1.55;;
55222;SDS011;41090;48.632;12.428;2023-07-13T15:31:22;2.55;;;2.00;;
55222;SDS011;41090;48.632;12.428;2023-07-13T15:36:14;3.00;;;2.08;;
55222;SDS011;41090;48.632;12.428;2023-07-13T15:38:39;3.60;;;1.95;;
55222;SDS011;41090;48.632;12.428;2023-07-13T15:41:16;4.45;;;2.22;;
55222;SDS011;41090;48.632;12.428;2023-07-13T15:43:41;3.90;;;1.95;;
55222;SDS011;41090;48.632;12.428;2023-07-13T15:46:06;3.58;;;1.67;;
55222;SDS011;41090;48.632;12.428;2023-07-13T15:48:32;9.45;;;1.92;;
55222;SDS011;41090;48.632;12.428;2023-07-13T15:51:00;6.40;;;2.00;;
55222;SDS011;41090;48.632;12.428;2023-07-13T15:53:28;5.85;;;2.00;;
55222;SDS011;41090;48.632;12.428;2023-07-13T15:55:53;2.22;;;1.80;;
55222;SDS011;41090;48.632;12.428;2023-07-13T15:58:19;3.95;;;1.83;;
55222;SDS011;41090;48.632;12.428;2023-07-13T16:00:45;3.55;;;2.03;;
55222;SDS011;41090;48.632;12.428;2023-07-13T16:03:10;2.33;;;1.80;;
55222;SDS011;41090;48.632;12.428;2023-07-13T16:05:36;2.70;;;1.70;;
55222;SDS011;41090;48.632;12.428;2023-07-13T16:08:02;2.33;;;1.90;;
55222;SDS011;41090;48.632;12.428;2023-07-13T16:10:33;3.00;;;1.70;;
55222;SDS011;41090;48.632;12.428;2023-07-13T16:12:59;3.00;;;1.80;;
55222;SDS011;41090;48.632;12.428;2023-07-13T16:15:25;2.78;;;1.60;;
55222;SDS011;41090;48.632;12.428;2023-07-13T16:17:50;3.50;;;1.90;;
55222;SDS011;41090;48.632;12.428;2023-07-13T16:20:16;3.70;;;1.90;;
55222;SDS011;41090;48.632;12.428;2023-07-13T16:22:47;2.42;;;1.83;;
55222;SDS011;41090;48.632;12.428;2023-07-13T16:25:18;1.70;;;1.55;;
55222;SDS011;41090;48.632;12.428;2023-07-13T16:27:45;6.10;;;1.92;;
55222;SDS011;41090;48.632;12.428;2023-07-13T16:30:15;2.67;;;1.95;;
55222;SDS011;41090;48.632;12.428;2023-07-13T16:32:40;2.88;;;1.80;;
55222;SDS011;41090;48.632;12.428;2023-07-13T16:35:07;4.28;;;1.83;;
55222;SDS011;41090;48.632;12.428;2023-07-13T16:37:33;4.10;;;1.77;;
55222;SDS011;41090;48.632;12.428;2023-07-13T16:40:00;4.20;;;1.98;;
55222;SDS011;41090;48.632;12.428;2023-07-13T16:42:26;3.35;;;1.98;;
55222;SDS011;41090;48.632;12.428;2023-07-13T16:44:51;3.80;;;2.10;;
55222;SDS011;41090;48.632;12.428;2023-07-13T16:47:18;4.22;;;1.80;;
55222;SDS011;41090;48.632;12.428;2023-07-13T16:49:43;2.90;;;1.90;;
55222;SDS011;41090;48.632;12.428;2023-07-13T16:52:11;2.53;;;1.60;;
55222;SDS011;41090;48.632;12.428;2023-07-13T16:54:37;2.25;;;1.73;;
55222;SDS011;41090;48.632;12.428;2023-07-13T16:57:05;2.85;;;1.80;;
55222;SDS011;41090;48.632;12.428;2023-07-13T16:59:34;3.42;;;2.30;;
55222;SDS011;41090;48.632;12.428;2023-07-13T17:02:00;2.40;;;1.65;;
55222;SDS011;41090;48.632;12.428;2023-07-13T17:04:27;2.35;;;1.80;;
55222;SDS011;41090;48.632;12.428;2023-07-13T17:06:52;3.03;;;1.80;;
55222;SDS011;41090;48.632;12.428;2023-07-13T17:09:18;2.50;;;1.70;;
55222;SDS011;41090;48.632;12.428;2023-07-13T17:11:44;4.05;;;1.77;;
55222;SDS011;41090;48.632;12.428;2023-07-13T17:14:13;3.97;;;1.90;;
55222;SDS011;41090;48.632;12.428;2023-07-13T17:16:40;3.70;;;1.63;;
55222;SDS011;41090;48.632;12.428;2023-07-13T17:19:09;1.83;;;1.38;;
55222;SDS011;41090;48.632;12.428;2023-07-13T17:21:35;2.97;;;1.80;;
55222;SDS011;41090;48.632;12.428;2023-07-13T17:24:01;2.08;;;1.70;;
55222;SDS011;41090;48.632;12.428;2023-07-13T17:26:26;2.55;;;1.80;;
55222;SDS011;41090;48.632;12.428;2023-07-13T17:28:51;2.20;;;1.90;;
55222;SDS011;41090;48.632;12.428;2023-07-13T17:31:17;2.75;;;1.67;;
55222;SDS011;41090;48.632;12.428;2023-07-13T17:33:43;3.47;;;1.90;;
55222;SDS011;41090;48.632;12.428;2023-07-13T17:36:14;2.88;;;1.92;;
55222;SDS011;41090;48.632;12.428;2023-07-13T17:38:45;3.15;;;1.85;;
55222;SDS011;41090;48.632;12.428;2023-07-13T17:41:14;2.85;;;1.73;;
55222;SDS011;41090;48.632;12.428;2023-07-13T17:43:40;2.63;;;1.65;;
55222;SDS011;41090;48.632;12.428;2023-07-13T17:46:13;2.95;;;1.77;;
55222;SDS011;41090;48.632;12.428;2023-07-13T17:48:40;1.70;;;1.60;;
55222;SDS011;41090;48.632;12.428;2023-07-13T17:51:11;3.67;;;2.08;;
55222;SDS011;41090;48.632;12.428;2023-07-13T17:53:37;3.17;;;2.00;;
55222;SDS011;41090;48.632;12.428;2023-07-13T17:56:07;2.85;;;1.88;;
55222;SDS011;41090;48.632;12.428;2023-07-13T17:58:32;3.50;;;1.80;;
55222;SDS011;41090;48.632;12.428;2023-07-13T18:00:57;2.70;;;1.75;;
55222;SDS011;41090;48.632;12.428;2023-07-13T18:03:24;1.70;;;1.60;;
55222;SDS011;41090;48.632;12.428;2023-07-13T18:05:52;1.95;;;1.73;;
55222;SDS011;41090;48.632;12.428;2023-07-13T18:10:46;3.00;;;1.92;;
55222;SDS011;41090;48.632;12.428;2023-07-13T18:13:11;2.47;;;1.83;;
55222;SDS011;41090;48.632;12.428;2023-07-13T18:15:37;2.10;;;1.70;;
55222;SDS011;41090;48.632;12.428;2023-07-13T18:18:03;1.95;;;1.73;;
55222;SDS011;41090;48.632;12.428;2023-07-13T18:20:29;2.30;;;1.70;;
55222;SDS011;41090;48.632;12.428;2023-07-13T18:22:54;2.35;;;1.70;;
55222;SDS011;41090;48.632;12.428;2023-07-13T18:25:23;2.00;;;1.80;;
55222;SDS011;41090;48.632;12.428;2023-07-13T18:27:49;2.40;;;1.80;;
55222;SDS011;41090;48.632;12.428;2023-07-13T18:30:16;2.78;;;1.50;;
55222;SDS011;41090;48.632;12.428;2023-07-13T18:32:52;2.97;;;1.92;;
55222;SDS011;41090;48.632;12.428;2023-07-13T18:35:36;3.13;;;1.77;;
55222;SDS011;41090;48.632;12.428;2023-07-13T18:38:03;4.15;;;1.80;;
55222;SDS011;41090;48.632;12.428;2023-07-13T18:40:28;3.28;;;1.67;;
55222;SDS011;41090;48.632;12.428;2023-07-13T18:42:54;2.85;;;2.00;;
55222;SDS011;41090;48.632;12.428;2023-07-13T18:45:19;3.72;;;1.80;;
55222;SDS011;41090;48.632;12.428;2023-07-13T18:47:47;2.53;;;1.90;;
55222;SDS011;41090;48.632;12.428;2023-07-13T18:50:16;2.67;;;2.10;;
55222;SDS011;41090;48.632;12.428;2023-07-13T18:52:43;4.05;;;2.10;;
55222;SDS011;41090;48.632;12.428;2023-07-13T18:55:15;5.07;;;2.30;;
55222;SDS011;41090;48.632;12.428;2023-07-13T18:57:41;2.88;;;2.05;;
55222;SDS011;41090;48.632;12.428;2023-07-13T19:00:06;3.67;;;2.00;;
55222;SDS011;41090;48.632;12.428;2023-07-13T19:02:32;4.05;;;2.00;;
55222;SDS011;41090;48.632;12.428;2023-07-13T19:04:57;2.45;;;1.80;;
55222;SDS011;41090;48.632;12.428;2023-07-13T19:07:23;2.80;;;2.17;;
55222;SDS011;41090;48.632;12.428;2023-07-13T19:09:50;2.47;;;1.70;;
55222;SDS011;41090;48.632;12.428;2023-07-13T19:12:16;1.93;;;1.67;;
55222;SDS011;41090;48.632;12.428;2023-07-13T19:14:42;4.77;;;2.10;;
55222;SDS011;41090;48.632;12.428;2023-07-13T19:17:10;3.70;;;1.87;;
55222;SDS011;41090;48.632;12.428;2023-07-13T19:19:36;4.70;;;2.30;;
55222;SDS011;41090;48.632;12.428;2023-07-13T19:22:01;2.53;;;1.97;;
55222;SDS011;41090;48.632;12.428;2023-07-13T19:24:27;3.03;;;2.10;;
55222;SDS011;41090;48.632;12.428;2023-07-13T19:26:53;2.30;;;2.10;;
55222;SDS011;41090;48.632;12.428;2023-07-13T19:29:20;2.63;;;2.00;;
55222;SDS011;41090;48.632;12.428;2023-07-13T19:31:46;4.47;;;1.90;;
55222;SDS011;41090;48.632;12.428;2023-07-13T19:34:18;4.97;;;2.23;;
55222;SDS011;41090;48.632;12.428;2023-07-13T19:36:44;4.30;;;2.47;;
55222;SDS011;41090;48.632;12.428;2023-07-13T19:39:19;2.57;;;2.37;;
55222;SDS011;41090;48.632;12.428;2023-07-13T19:41:46;4.03;;;2.40;;
55222;SDS011;41090;48.632;12.428;2023-07-13T19:44:12;2.67;;;2.17;;
55222;SDS011;41090;48.632;12.428;2023-07-13T19:46:37;3.60;;;2.10;;
55222;SDS011;41090;48.632;12.428;2023-07-13T19:49:04;3.63;;;2.10;;
55222;SDS011;41090;48.632;12.428;2023-07-13T19:51:31;2.17;;;1.97;;
55222;SDS011;41090;48.632;12.428;2023-07-13T19:54:29;3.10;;;2.10;;
55222;SDS011;41090;48.632;12.428;2023-07-13T19:56:49;2.87;;;2.20;;
55222;SDS011;41090;48.632;12.428;2023-07-13T20:01:47;3.43;;;2.47;;
55222;SDS011;41090;48.632;12.428;2023-07-13T20:04:12;3.03;;;2.00;;
55222;SDS011;41090;48.632;12.428;2023-07-13T20:06:37;3.97;;;2.27;;
55222;SDS011;41090;48.632;12.428;2023-07-13T20:09:05;5.10;;;2.30;;
55222;SDS011;41090;48.632;12.428;2023-07-13T20:11:36;3.93;;;2.30;;
55222;SDS011;41090;48.632;12.428;2023-07-13T20:14:04;2.10;;;1.90;;
55222;SDS011;41090;48.632;12.428;2023-07-13T20:16:35;4.43;;;2.30;;
55222;SDS011;41090;48.632;12.428;2023-07-13T20:19:01;3.43;;;2.30;;
55222;SDS011;41090;48.632;12.428;2023-07-13T20:21:27;3.43;;;2.53;;
55222;SDS011;41090;48.632;12.428;2023-07-13T20:23:53;2.20;;;2.00;;
55222;SDS011;41090;48.632;12.428;2023-07-13T20:26:18;2.77;;;2.27;;
55222;SDS011;41090;48.632;12.428;2023-07-13T20:28:45;2.63;;;2.40;;
55222;SDS011;41090;48.632;12.428;2023-07-13T20:31:13;3.13;;;2.30;;
55222;SDS011;41090;48.632;12.428;2023-07-13T20:33:39;3.90;;;2.60;;
55222;SDS011;41090;48.632;12.428;2023-07-13T20:36:05;2.30;;;2.10;;
55222;SDS011;41090;48.632;12.428;2023-07-13T20:38:32;2.40;;;2.20;;
55222;SDS011;41090;48.632;12.428;2023-07-13T20:40:58;2.30;;;2.10;;